SVYA4: Illinois River nr Savoy AR

Data processed at Fri Mar 09 2018 23:13


All information presented herein is the property of the government of the United States of America and may be revised or deleted at any time without prior notice.
Dissemination of this information without the expressed written consent of the Public Affairs Office, Tulsa District U.S. Army Corps of Engineers is strictly prohibited.
These data are gathered electronically and, as presented, have not undergone any form of quality control. These data are not guaranteed to be valid or correct.
Go to home page.
Go to station list.

Downstream station:


Previous Day
Next Day
Current Day
    
SHEF ID:       SVYA4     Illinois River at Savoy, AR
STATION TYPE:  

                STAGE  RIV-FLOW  BAT-LOAD
                   ft       cfs      volt
              Ccp-Rev   Ccp-Rev   Ccp-Rev
(US/Central)
03/07 00:00      3.41       189     12.81
03/07 01:00      3.40       187     12.81
03/07 02:00      3.39       184     12.73
03/07 03:00      3.38       182     12.73
03/07 04:00      3.38       182     12.73
03/07 05:00      3.38       182     12.65
03/07 06:00      3.37       180     12.65
03/07 07:00      3.36       178     12.65
03/07 08:00      3.36       178     12.65
03/07 09:00      3.36       178     12.97
03/07 10:00      3.36       178     13.60
03/07 11:00      3.35       175     14.08
03/07 12:00      3.35       175     14.56
03/07 13:00      3.23       149     14.00
03/07 14:00      3.22       147     14.08
03/07 15:00      3.21       145     14.00
03/07 16:00      3.21       145     13.84
03/07 17:00      3.21       145     13.60
03/07 18:00      3.20       143     13.44
03/07 19:00      3.18       139     13.21
03/07 20:00      3.19       141     12.97
03/07 21:00      3.19       141     12.97
03/07 22:00      3.19       141     12.89
03/07 23:00      3.18       139     12.81